Time;durP1;ratioP1;P1;durP2;ratioP2;P2;SDS_P1;SDS_P2;PMS_P1;PMS_P2;Temp;Humidity;BMP_temperature;BMP_pressure;BME280_temperature;BME280_humidity;BME280_pressure;Samples;Min_cycle;Max_cycle;Signal;HPM_P1;HPM_P2
2023/03/16 00:00:35;;;;;;;8.00;4.35;;;;;;;-146.27;71.05;48357.75;5084178;28;20020;-71
2023/03/16 00:03:00;;;;;;;7.50;4.40;;;;;;;-146.27;70.72;48381.66;5076992;28;20043;-71
2023/03/16 00:05:25;;;;;;;11.18;4.63;;;;;;;-146.27;70.15;48383.66;5082206;28;20028;-70
2023/03/16 00:07:51;;;;;;;9.88;4.45;;;;;;;-146.27;70.48;48363.75;5087704;28;20087;-70
2023/03/16 00:10:16;;;;;;;11.07;4.50;;;;;;;-146.27;70.90;48417.50;5088973;28;20115;-70
2023/03/16 00:12:43;;;;;;;9.05;5.07;;;;;;;-146.27;70.47;48369.72;5085566;28;20107;-71
2023/03/16 00:15:10;;;;;;;8.75;4.43;;;;;;;-146.27;70.78;48375.69;5079847;28;20461;-71
2023/03/16 00:17:36;;;;;;;13.55;4.85;;;;;;;-146.27;71.06;48377.69;5076866;28;20031;-71
2023/03/16 00:20:05;;;;;;;8.38;4.32;;;;;;;-146.27;70.66;48363.75;5083664;28;20081;-71
2023/03/16 00:22:31;;;;;;;10.88;4.40;;;;;;;-146.27;70.75;48375.69;5086258;28;20089;-71
2023/03/16 00:24:57;;;;;;;8.90;4.72;;;;;;;-146.27;70.70;48379.66;5092044;28;20024;-71
2023/03/16 00:27:24;;;;;;;9.50;4.50;;;;;;;-146.27;71.01;48373.69;5090811;28;20093;-72
2023/03/16 00:29:54;;;;;;;5.03;4.00;;;;;;;-146.27;70.99;48367.72;5088029;28;20023;-69
2023/03/16 00:32:26;;;;;;;8.60;4.32;;;;;;;-146.27;70.96;48423.50;5085732;28;20056;-71
2023/03/16 00:34:52;;;;;;;8.65;4.35;;;;;;;-146.27;71.53;48373.69;5080482;28;20117;-70
2023/03/16 00:37:19;;;;;;;7.25;4.18;;;;;;;-146.27;71.27;48373.69;5084591;28;20563;-71
2023/03/16 00:39:46;;;;;;;7.00;4.38;;;;;;;-146.27;71.26;48349.78;5075828;28;20024;-71
2023/03/16 00:42:13;;;;;;;5.75;4.07;;;;;;;-146.27;71.22;48423.50;5090671;28;20028;-71
2023/03/16 00:44:40;;;;;;;7.68;4.68;;;;;;;-146.27;72.21;48395.59;5088889;28;20028;-71
2023/03/16 00:47:06;;;;;;;9.48;4.90;;;;;;;-146.27;72.30;48357.75;5089549;28;20028;-72
2023/03/16 00:49:33;;;;;;;6.80;4.07;;;;;;;-146.27;73.55;48381.66;5075265;28;20032;-71
2023/03/16 00:52:03;;;;;;;6.63;4.03;;;;;;;-146.27;73.70;48343.81;5087635;28;20544;-70
2023/03/16 00:54:31;;;;;;;6.05;4.40;;;;;;;-146.27;73.70;48377.69;5080323;28;20028;-72
2023/03/16 00:56:58;;;;;;;13.50;4.60;;;;;;;-146.27;73.95;48395.59;5091900;28;20032;-72
2023/03/16 00:59:25;;;;;;;8.00;4.40;;;;;;;-146.27;74.54;48407.56;5086971;28;20039;-68
2023/03/16 01:01:51;;;;;;;9.48;4.45;;;;;;;-146.27;74.96;48399.59;5083851;28;20148;-68
2023/03/16 01:04:17;;;;;;;9.45;4.93;;;;;;;-146.27;75.39;48353.78;5084257;28;20051;-67
2023/03/16 01:06:43;;;;;;;9.80;4.50;;;;;;;-146.27;75.95;48371.69;5091154;28;20101;-68
2023/03/16 01:09:09;;;;;;;7.25;5.03;;;;;;;-146.27;76.79;48403.56;5079424;28;20028;-67
2023/03/16 01:11:34;;;;;;;8.35;4.55;;;;;;;-146.27;77.27;48363.75;5089427;28;20020;-68
2023/03/16 01:14:00;;;;;;;8.65;4.53;;;;;;;-146.27;77.23;48429.47;5080336;28;20035;-67
2023/03/16 01:16:25;;;;;;;8.07;4.63;;;;;;;-146.27;77.33;48379.66;5087517;28;20105;-67
2023/03/16 01:18:55;;;;;;;8.88;4.75;;;;;;;-146.27;77.00;48369.72;5089942;28;20016;-68
2023/03/16 01:21:21;;;;;;;9.20;4.78;;;;;;;-146.27;77.23;48363.75;5088003;28;20115;-68
2023/03/16 01:23:47;;;;;;;7.90;4.45;;;;;;;-146.27;77.34;48387.63;5085832;28;20122;-68
2023/03/16 01:26:15;;;;;;;8.27;4.55;;;;;;;-146.27;77.56;48383.66;5090078;28;20107;-66
2023/03/16 01:28:41;;;;;;;8.95;5.00;;;;;;;-146.27;77.91;48387.63;5080582;28;20025;-67
2023/03/16 01:31:08;;;;;;;7.70;4.72;;;;;;;-146.27;78.16;48409.53;5083822;28;20089;-66
2023/03/16 01:33:34;;;;;;;6.20;4.53;;;;;;;-146.27;78.60;48371.69;5089483;28;20055;-66
2023/03/16 01:36:06;;;;;;;8.05;4.70;;;;;;;-146.27;78.79;48397.59;5091242;28;20093;-66
2023/03/16 01:38:32;;;;;;;10.05;4.05;;;;;;;-146.27;79.83;48421.50;5082334;28;20040;-66
2023/03/16 01:40:59;;;;;;;6.50;4.55;;;;;;;-146.27;80.42;48407.56;5089175;28;20103;-67
2023/03/16 01:43:27;;;;;;;8.30;4.85;;;;;;;-146.27;79.87;48379.66;5088590;28;20394;-67
2023/03/16 01:46:16;;;;;;;7.43;4.38;;;;;;;-146.27;80.94;48399.59;5081727;28;21093;-67
2023/03/16 01:48:54;;;;;;;7.03;4.65;;;;;;;-146.27;81.08;48383.66;5079009;28;20498;-67
2023/03/16 01:51:35;;;;;;;7.60;4.72;;;;;;;-146.27;80.85;48405.56;5084618;28;20038;-67
2023/03/16 01:54:23;;;;;;;11.93;5.03;;;;;;;-146.27;81.04;48415.53;5076114;28;20089;-68
2023/03/16 01:57:01;;;;;;;7.35;4.80;;;;;;;-146.27;81.51;48417.50;5081804;28;20048;-67
2023/03/16 01:59:32;;;;;;;10.23;4.88;;;;;;;-146.27;81.68;48355.78;5089189;28;20024;-67
2023/03/16 02:01:57;;;;;;;11.77;4.95;;;;;;;-146.27;81.68;48399.59;5085463;28;20035;-68
2023/03/16 02:04:38;;;;;;;9.70;4.47;;;;;;;-146.27;82.44;48419.50;5082905;28;20354;-67
2023/03/16 02:07:07;;;;;;;8.45;4.65;;;;;;;-146.27;83.51;48359.75;5086376;28;20063;-68
2023/03/16 02:09:38;;;;;;;7.65;4.88;;;;;;;-146.27;83.89;48375.69;5085434;28;20107;-67
2023/03/16 02:12:04;;;;;;;10.40;5.45;;;;;;;-146.27;85.72;48403.56;5085425;28;20032;-67
2023/03/16 02:14:30;;;;;;;9.07;4.38;;;;;;;-146.27;87.94;48417.50;5084040;28;20380;-67
2023/03/16 02:16:56;;;;;;;11.15;5.47;;;;;;;-146.27;88.55;48385.66;5071644;28;20032;-67
2023/03/16 02:19:45;;;;;;;9.73;5.18;;;;;;;-146.27;89.89;48351.78;5083358;28;20060;-67
2023/03/16 02:22:12;;;;;;;11.05;5.38;;;;;;;-146.27;91.09;48385.66;5072990;28;20044;-67
2023/03/16 02:24:38;;;;;;;9.40;5.28;;;;;;;-146.27;92.60;48439.41;5071532;28;20024;-67
2023/03/16 02:27:08;;;;;;;13.40;5.35;;;;;;;-146.27;92.72;48399.59;5087606;28;20038;-68
2023/03/16 02:29:58;;;;;;;9.68;5.13;;;;;;;-146.27;92.70;48363.75;5092081;28;20028;-68
2023/03/16 02:32:26;;;;;;;11.85;4.93;;;;;;;-146.27;93.22;48381.66;5080063;28;20028;-67
2023/03/16 02:34:53;;;;;;;7.93;4.80;;;;;;;-146.27;94.18;48377.69;5087809;28;20017;-67
2023/03/16 02:37:18;;;;;;;11.13;5.50;;;;;;;-146.27;95.37;48405.56;5085679;28;20051;-67
2023/03/16 02:39:44;;;;;;;11.80;5.20;;;;;;;-146.27;96.27;48399.59;5090179;28;20067;-68
2023/03/16 02:42:16;;;;;;;12.35;5.95;;;;;;;-146.27;96.14;48397.59;5078717;28;20028;-67
2023/03/16 02:44:46;;;;;;;16.13;5.43;;;;;;;-146.27;95.71;48417.50;5082237;28;20082;-67
2023/03/16 02:47:20;;;;;;;14.20;5.25;;;;;;;-146.27;95.90;48411.53;5084983;28;20510;-68
2023/03/16 02:49:46;;;;;;;10.80;5.45;;;;;;;-146.27;96.68;48371.69;5088547;28;20067;-67
2023/03/16 02:52:12;;;;;;;15.43;5.10;;;;;;;-146.27;97.05;48395.59;5090838;28;20020;-68
2023/03/16 02:54:37;;;;;;;10.35;5.03;;;;;;;-146.27;97.46;48393.63;5091040;28;20058;-67
2023/03/16 02:57:03;;;;;;;10.43;5.03;;;;;;;-146.27;97.17;48397.59;5089758;28;20042;-68
2023/03/16 02:59:29;;;;;;;11.48;5.45;;;;;;;-146.27;98.18;48397.59;5091360;28;20490;-67
2023/03/16 03:01:54;;;;;;;10.15;5.00;;;;;;;-146.27;98.15;48379.66;5090988;28;20032;-66
2023/03/16 03:04:22;;;;;;;8.30;5.10;;;;;;;-146.27;98.33;48393.63;5084319;28;20078;-67
2023/03/16 03:06:48;;;;;;;7.72;5.15;;;;;;;-146.27;99.51;48375.69;5079892;28;20051;-67
2023/03/16 03:09:13;;;;;;;9.75;5.20;;;;;;;-146.27;99.59;48387.63;5085414;28;20016;-68
2023/03/16 03:11:39;;;;;;;10.73;5.25;;;;;;;-146.27;99.45;48391.63;5082908;28;20033;-67
2023/03/16 03:14:04;;;;;;;10.77;5.15;;;;;;;-146.27;100.00;48367.72;5084237;28;20031;-66
2023/03/16 03:16:30;;;;;;;8.77;4.90;;;;;;;-146.27;100.00;48409.53;5084807;28;20073;-66
2023/03/16 03:18:56;;;;;;;8.73;5.43;;;;;;;-146.27;100.00;48419.50;5082770;28;20035;-67
2023/03/16 03:21:22;;;;;;;14.35;5.07;;;;;;;-146.27;100.00;48379.66;5088817;28;20028;-67
2023/03/16 03:23:49;;;;;;;8.50;5.50;;;;;;;-146.27;100.00;48389.63;5080425;28;20039;-67
2023/03/16 03:26:15;;;;;;;11.98;5.35;;;;;;;-146.27;100.00;48413.53;5079688;28;20020;-67
2023/03/16 03:28:41;;;;;;;12.35;5.10;;;;;;;-146.27;100.00;48415.53;5081147;28;20039;-66
2023/03/16 03:31:12;;;;;;;8.02;4.78;;;;;;;-146.27;100.00;48381.66;5080329;28;20040;-69
2023/03/16 03:33:37;;;;;;;7.55;4.60;;;;;;;-146.27;100.00;48381.66;5078721;28;20035;-67
2023/03/16 03:36:03;;;;;;;7.88;5.15;;;;;;;-146.27;100.00;48385.66;5093355;28;20036;-66
2023/03/16 03:38:29;;;;;;;8.10;5.00;;;;;;;-146.27;100.00;48363.75;5089544;28;20497;-67
2023/03/16 03:40:58;;;;;;;7.93;5.18;;;;;;;-146.27;100.00;48397.59;5082178;28;20115;-67
2023/03/16 03:43:24;;;;;;;9.93;5.43;;;;;;;-146.27;100.00;48423.50;5093676;28;20027;-68
2023/03/16 03:45:57;;;;;;;13.02;5.45;;;;;;;-146.27;100.00;48439.41;5080658;28;20496;-67
2023/03/16 03:48:23;;;;;;;9.60;5.53;;;;;;;-146.27;100.00;48367.72;5086869;28;20028;-68
2023/03/16 03:50:48;;;;;;;10.00;5.22;;;;;;;-146.27;100.00;48395.59;5087732;28;20027;-67
2023/03/16 03:53:14;;;;;;;7.75;4.57;;;;;;;-146.27;100.00;48405.56;5087987;28;20535;-67
2023/03/16 03:55:39;;;;;;;9.18;5.28;;;;;;;-146.27;100.00;48383.66;5084550;28;20423;-67
2023/03/16 03:58:04;;;;;;;9.00;4.85;;;;;;;-146.27;100.00;48367.72;5091981;28;20043;-67
2023/03/16 04:00:30;;;;;;;8.00;4.70;;;;;;;-146.27;100.00;48397.59;5087329;28;20110;-67
2023/03/16 04:02:55;;;;;;;9.75;5.22;;;;;;;-146.27;100.00;48403.56;5084119;28;20024;-68
2023/03/16 04:05:21;;;;;;;10.68;4.90;;;;;;;-146.27;100.00;48389.63;5084855;28;20063;-67
2023/03/16 04:07:47;;;;;;;9.15;5.30;;;;;;;-146.27;100.00;48399.59;5087359;28;20044;-66
2023/03/16 04:10:12;;;;;;;8.95;4.95;;;;;;;-146.27;100.00;48423.50;5089449;28;20396;-67
2023/03/16 04:12:37;;;;;;;7.95;4.50;;;;;;;-146.27;100.00;48383.66;5087552;28;20020;-66
2023/03/16 04:15:03;;;;;;;6.93;4.47;;;;;;;-146.27;100.00;48413.53;5089314;28;20084;-67
2023/03/16 04:17:29;;;;;;;10.25;4.57;;;;;;;-146.27;100.00;48373.69;5089951;28;20031;-71
2023/03/16 04:19:54;;;;;;;10.18;4.93;;;;;;;-146.27;100.00;48387.63;5082459;28;20760;-71
2023/03/16 04:22:22;;;;;;;15.77;5.30;;;;;;;-146.27;100.00;48417.50;5083317;28;20028;-70
2023/03/16 04:24:47;;;;;;;9.88;4.65;;;;;;;-146.27;100.00;48397.59;5091533;28;20027;-70
2023/03/16 04:27:13;;;;;;;12.30;5.20;;;;;;;-146.27;100.00;48399.59;5091572;28;20027;-71
2023/03/16 04:29:38;;;;;;;8.18;4.22;;;;;;;-146.27;100.00;48387.63;5089244;28;20034;-71
2023/03/16 04:32:07;;;;;;;9.93;4.38;;;;;;;-146.27;100.00;48423.50;5084497;28;20028;-71
2023/03/16 04:34:33;;;;;;;10.40;5.40;;;;;;;-146.27;100.00;48393.63;5088791;28;20024;-70
2023/03/16 04:36:59;;;;;;;7.95;4.95;;;;;;;-146.27;100.00;48387.63;5086905;28;20027;-70
2023/03/16 04:39:24;;;;;;;9.10;5.65;;;;;;;-146.27;100.00;48433.44;5084224;28;20397;-71
2023/03/16 04:41:50;;;;;;;9.20;4.28;;;;;;;-146.27;100.00;48407.56;5083227;28;20024;-71
2023/03/16 04:44:16;;;;;;;10.02;4.80;;;;;;;-146.27;100.00;48393.63;5084692;28;21290;-71
2023/03/16 04:46:41;;;;;;;6.85;4.47;;;;;;;-146.27;100.00;48423.50;5082377;28;20476;-71
2023/03/16 04:49:08;;;;;;;7.68;4.28;;;;;;;-146.27;100.00;48429.47;5076149;28;20036;-72
2023/03/16 04:51:36;;;;;;;14.65;5.15;;;;;;;-146.27;100.00;48403.56;5085276;28;20540;-71
2023/03/16 04:54:01;;;;;;;8.20;4.22;;;;;;;-146.27;100.00;48409.53;5085619;28;20037;-71
2023/03/16 04:56:26;;;;;;;10.23;4.13;;;;;;;-146.27;100.00;48397.59;5080637;28;20039;-71
2023/03/16 04:58:52;;;;;;;8.07;4.00;;;;;;;-146.27;100.00;48399.59;5087019;28;20039;-71
2023/03/16 05:01:17;;;;;;;6.28;3.83;;;;;;;-146.27;100.00;48391.63;5083875;28;20036;-71
2023/03/16 05:03:43;;;;;;;8.35;4.57;;;;;;;-146.27;100.00;48395.59;5080287;28;20024;-71
2023/03/16 05:06:10;;;;;;;6.45;3.58;;;;;;;-146.27;100.00;48387.63;5085805;28;20516;-71
2023/03/16 05:08:36;;;;;;;12.70;4.82;;;;;;;-146.27;100.00;48403.56;5087921;28;20032;-71
2023/03/16 05:11:01;;;;;;;6.05;3.25;;;;;;;-146.27;100.00;48381.66;5087378;28;20066;-70
2023/03/16 05:13:27;;;;;;;8.25;3.78;;;;;;;-146.27;100.00;48395.59;5091914;28;20032;-71
2023/03/16 05:15:52;;;;;;;6.15;4.85;;;;;;;-146.27;100.00;48351.78;5081744;28;20042;-71
2023/03/16 05:18:18;;;;;;;5.18;3.40;;;;;;;-146.27;100.00;48375.69;5084016;28;20035;-70
2023/03/16 05:20:44;;;;;;;9.95;3.65;;;;;;;-146.27;100.00;48381.66;5082924;28;20027;-70
2023/03/16 05:23:10;;;;;;;9.02;3.78;;;;;;;-146.27;100.00;48415.53;5086269;28;20031;-70
2023/03/16 05:25:36;;;;;;;6.88;3.75;;;;;;;-146.27;100.00;48391.63;5088506;28;20024;-71
2023/03/16 05:28:03;;;;;;;5.78;3.65;;;;;;;-146.27;100.00;48415.53;5082062;28;20032;-70
2023/03/16 05:30:30;;;;;;;8.13;3.40;;;;;;;-146.27;100.00;48399.59;5079439;28;20024;-71
2023/03/16 05:32:56;;;;;;;6.88;3.90;;;;;;;-146.27;100.00;48387.63;5079254;28;20035;-70
2023/03/16 05:35:22;;;;;;;7.20;3.38;;;;;;;-146.27;100.00;48419.50;5086349;28;20028;-70
2023/03/16 05:37:47;;;;;;;6.03;2.97;;;;;;;-146.27;100.00;48377.69;5081077;28;20381;-70
2023/03/16 05:40:17;;;;;;;6.07;2.67;;;;;;;-146.27;100.00;48427.47;5081700;28;20468;-70
2023/03/16 05:42:44;;;;;;;5.00;2.72;;;;;;;-146.27;100.00;48397.59;5079102;28;20383;-71
2023/03/16 05:45:10;;;;;;;6.50;2.67;;;;;;;-146.27;100.00;48427.47;5085105;28;20031;-71
2023/03/16 05:47:36;;;;;;;7.35;3.38;;;;;;;-146.27;100.00;48423.50;5090123;28;20119;-71
2023/03/16 05:50:03;;;;;;;6.13;3.00;;;;;;;-146.27;100.00;48415.53;5085138;28;20519;-71
2023/03/16 05:52:29;;;;;;;5.45;2.58;;;;;;;-146.27;100.00;48411.53;5076980;28;20490;-71
2023/03/16 05:54:54;;;;;;;4.68;2.47;;;;;;;-146.27;100.00;48407.56;5084592;28;20029;-71
2023/03/16 05:57:20;;;;;;;6.18;3.20;;;;;;;-146.27;100.00;48419.50;5083214;28;20016;-71
2023/03/16 05:59:45;;;;;;;3.90;2.58;;;;;;;-146.27;100.00;48379.66;5075735;28;20055;-70
2023/03/16 06:02:10;;;;;;;8.90;3.20;;;;;;;-146.27;100.00;48401.56;5091284;28;20024;-70
2023/03/16 06:04:36;;;;;;;6.20;3.00;;;;;;;-146.27;100.00;48409.53;5091479;28;20028;-70
2023/03/16 06:07:01;;;;;;;4.63;3.30;;;;;;;-146.27;100.00;48413.53;5096645;28;20102;-70
2023/03/16 06:09:27;;;;;;;5.75;3.28;;;;;;;-146.27;100.00;48403.56;5080714;28;20027;-71
2023/03/16 06:11:52;;;;;;;5.45;3.10;;;;;;;-146.27;100.00;48393.63;5087735;28;20050;-71
2023/03/16 06:14:18;;;;;;;13.25;3.63;;;;;;;-146.27;100.00;48375.69;5086872;28;20413;-71
2023/03/16 06:16:43;;;;;;;15.27;3.88;;;;;;;-146.27;100.00;48443.41;5085923;28;20028;-70
2023/03/16 06:19:09;;;;;;;8.95;3.08;;;;;;;-146.27;100.00;48399.59;5089533;28;20073;-73
2023/03/16 06:21:34;;;;;;;7.63;3.40;;;;;;;-146.27;100.00;48419.50;5092662;28;20479;-74
2023/03/16 06:24:00;;;;;;;8.00;3.05;;;;;;;-146.27;100.00;48387.63;5091378;28;20173;-73
2023/03/16 06:26:26;;;;;;;13.50;3.20;;;;;;;-146.27;100.00;48415.53;5088761;28;20112;-73
2023/03/16 06:28:51;;;;;;;8.57;3.90;;;;;;;-146.27;100.00;48371.69;5079316;28;20745;-73
2023/03/16 06:31:16;;;;;;;7.82;3.58;;;;;;;-146.27;100.00;48411.53;5087505;28;20032;-74
2023/03/16 06:33:42;;;;;;;10.93;3.65;;;;;;;-146.27;100.00;48383.66;5088789;28;20050;-74
2023/03/16 06:36:07;;;;;;;7.00;3.58;;;;;;;-146.27;100.00;48367.72;5086942;28;20863;-70
2023/03/16 06:38:33;;;;;;;6.53;3.38;;;;;;;-146.27;100.00;48395.59;5088037;28;20062;-71
2023/03/16 06:40:58;;;;;;;11.32;3.17;;;;;;;-146.27;100.00;48443.41;5083931;28;20031;-71
2023/03/16 06:43:24;;;;;;;11.85;3.40;;;;;;;-146.27;100.00;48413.53;5083959;28;20038;-71
2023/03/16 06:45:49;;;;;;;8.68;3.05;;;;;;;-146.27;100.00;48419.50;5082748;28;20036;-72
2023/03/16 06:48:14;;;;;;;6.68;2.97;;;;;;;-146.27;100.00;48411.53;5086680;28;20027;-71
2023/03/16 06:50:40;;;;;;;7.43;3.35;;;;;;;-146.27;100.00;48427.47;5085162;28;20043;-71
2023/03/16 06:53:05;;;;;;;6.78;3.10;;;;;;;-146.27;100.00;48403.56;5084482;28;20024;-70
2023/03/16 06:55:31;;;;;;;8.55;3.60;;;;;;;-146.27;100.00;48395.59;5084466;28;20443;-70
2023/03/16 06:57:56;;;;;;;11.43;4.10;;;;;;;-146.27;100.00;48421.50;5084376;28;20035;-70
2023/03/16 07:00:22;;;;;;;6.57;3.22;;;;;;;-146.27;100.00;48379.66;5083704;28;20107;-70
2023/03/16 07:02:47;;;;;;;7.97;3.00;;;;;;;-146.27;100.00;48403.56;5083654;28;20044;-71
2023/03/16 07:05:13;;;;;;;7.43;2.88;;;;;;;-146.27;100.00;48451.38;5086392;28;20381;-71
2023/03/16 07:07:41;;;;;;;5.72;3.08;;;;;;;-146.27;100.00;48407.56;5083538;28;20036;-71
2023/03/16 07:10:11;;;;;;;5.88;3.42;;;;;;;-146.27;100.00;48391.63;5083699;28;20035;-71
2023/03/16 07:12:37;;;;;;;5.95;2.97;;;;;;;-146.27;100.00;48407.56;5082159;28;20039;-71
2023/03/16 07:15:03;;;;;;;5.93;3.00;;;;;;;-146.27;100.00;48415.53;5090411;28;20040;-71
2023/03/16 07:17:28;;;;;;;5.50;2.83;;;;;;;-146.27;100.00;48395.59;5089315;28;20024;-71
2023/03/16 07:19:54;;;;;;;6.97;3.10;;;;;;;-146.27;100.00;48395.59;5083643;28;20022;-73
2023/03/16 07:22:20;;;;;;;8.68;3.08;;;;;;;-146.27;100.00;48369.72;5080199;28;20127;-71
2023/03/16 07:24:50;;;;;;;9.95;2.95;;;;;;;-146.27;100.00;48409.53;5085954;28;20024;-71
2023/03/16 07:27:16;;;;;;;7.85;2.83;;;;;;;-146.27;100.00;48403.56;5080234;28;20029;-71
2023/03/16 07:29:41;;;;;;;5.47;2.80;;;;;;;-146.27;100.00;48407.56;5075290;28;20035;-71
2023/03/16 07:32:07;;;;;;;11.00;3.97;;;;;;;-146.27;100.00;48439.41;5086322;28;20078;-71
2023/03/16 07:34:32;;;;;;;8.02;3.03;;;;;;;-146.27;100.00;48427.47;5083155;28;20031;-72
2023/03/16 07:36:57;;;;;;;4.65;2.53;;;;;;;-146.27;100.00;48411.53;5085012;28;20038;-75
2023/03/16 07:39:23;;;;;;;6.18;3.22;;;;;;;-146.27;100.00;48383.66;5079080;28;20115;-70
2023/03/16 07:41:48;;;;;;;5.43;3.05;;;;;;;-146.27;100.00;48435.44;5082187;28;20012;-71
2023/03/16 07:44:13;;;;;;;6.57;2.13;;;;;;;-146.27;100.00;48405.56;5089958;28;20024;-70
2023/03/16 07:46:39;;;;;;;7.68;3.33;;;;;;;-146.27;100.00;48421.50;5088158;28;20034;-70
2023/03/16 07:49:04;;;;;;;5.35;2.40;;;;;;;-146.27;100.00;48383.66;5085174;28;20028;-70
2023/03/16 07:51:30;;;;;;;6.50;2.67;;;;;;;-146.27;100.00;48427.47;5084736;28;20044;-70
2023/03/16 07:53:55;;;;;;;5.43;2.40;;;;;;;-146.27;100.00;48423.50;5092943;28;20045;-71
2023/03/16 07:56:20;;;;;;;6.47;2.58;;;;;;;-146.27;100.00;48383.66;5079902;28;20119;-71
2023/03/16 07:58:46;;;;;;;4.53;2.20;;;;;;;-146.27;100.00;48371.69;5079611;28;20129;-71
2023/03/16 08:01:11;;;;;;;5.18;2.20;;;;;;;-146.27;100.00;48415.53;5085345;28;20111;-72
2023/03/16 08:03:37;;;;;;;4.95;2.17;;;;;;;-146.27;100.00;48367.72;5076017;28;20031;-70
2023/03/16 08:06:04;;;;;;;6.03;2.88;;;;;;;-146.27;100.00;48393.63;5086238;28;20031;-72
2023/03/16 08:08:30;;;;;;;5.00;2.63;;;;;;;-146.27;99.43;48379.66;5088018;28;20484;-72
2023/03/16 08:10:56;;;;;;;5.00;2.05;;;;;;;-146.27;97.69;48369.72;5077441;28;20055;-69
2023/03/16 08:13:21;;;;;;;6.47;2.22;;;;;;;-146.27;97.81;48403.56;5090987;28;20059;-72
2023/03/16 08:15:49;;;;;;;3.63;2.30;;;;;;;-146.27;97.28;48395.59;5084927;27;20048;-71
2023/03/16 08:18:15;;;;;;;6.80;2.10;;;;;;;-146.27;96.73;48401.56;5085043;28;20375;-71
2023/03/16 08:20:40;;;;;;;6.88;2.35;;;;;;;-146.27;96.24;48363.75;5087004;28;20020;-70
2023/03/16 08:23:06;;;;;;;4.30;2.10;;;;;;;-146.27;95.76;48415.53;5086561;28;20020;-71
2023/03/16 08:25:31;;;;;;;5.15;2.00;;;;;;;-146.27;95.59;48359.75;5088156;28;20038;-78
2023/03/16 08:27:57;;;;;;;3.67;1.92;;;;;;;-146.27;95.41;48415.53;5089482;28;20020;-78
2023/03/16 08:30:24;;;;;;;4.90;2.67;;;;;;;-146.27;95.56;48367.72;5079541;28;20054;-78
2023/03/16 08:32:49;;;;;;;6.70;2.30;;;;;;;-146.27;94.99;48383.66;5074023;28;20036;-76
2023/03/16 08:35:15;;;;;;;5.20;2.47;;;;;;;-146.27;95.21;48385.66;5084149;28;20101;-77
2023/03/16 08:37:41;;;;;;;5.75;1.80;;;;;;;-146.27;95.23;48385.66;5084713;28;20024;-77
2023/03/16 08:40:19;;;;;;;6.70;2.17;;;;;;;-146.27;93.20;48341.81;5083579;28;20031;-78
2023/03/16 08:42:44;;;;;;;6.43;2.40;;;;;;;-146.27;93.21;48399.59;5084485;28;20024;-78
2023/03/16 08:45:10;;;;;;;7.50;2.00;;;;;;;-146.27;92.40;48387.63;5086728;28;20074;-76
2023/03/16 08:47:36;;;;;;;8.32;2.15;;;;;;;-146.27;92.74;48387.63;5091759;28;20027;-76
2023/03/16 08:50:04;;;;;;;10.80;2.42;;;;;;;-146.27;91.12;48403.56;5092387;28;20038;-76
2023/03/16 08:52:30;;;;;;;4.65;2.03;;;;;;;-146.27;90.00;48385.66;5096959;28;20063;-75
2023/03/16 08:54:56;;;;;;;7.43;1.95;;;;;;;-146.27;89.40;48373.69;5096639;28;20063;-76
2023/03/16 08:57:21;;;;;;;11.50;2.55;;;;;;;-146.27;87.88;48391.63;5084584;28;20024;-77
2023/03/16 08:59:47;;;;;;;7.30;2.38;;;;;;;-146.27;88.04;48383.66;5080864;28;20395;-76
2023/03/16 09:02:13;;;;;;;6.50;2.17;;;;;;;-146.27;85.88;48367.72;5092093;28;20035;-79
2023/03/16 09:04:39;;;;;;;5.28;2.10;;;;;;;-146.27;84.63;48387.63;5087795;28;20056;-78
2023/03/16 09:07:04;;;;;;;3.17;1.65;;;;;;;-146.27;82.54;48365.72;5088612;28;20071;-76
2023/03/16 09:09:30;;;;;;;4.07;2.15;;;;;;;-146.27;80.91;48357.75;5095131;28;20059;-77
2023/03/16 09:11:57;;;;;;;3.30;1.80;;;;;;;-146.27;82.01;48371.69;5081493;28;20044;-77
2023/03/16 09:14:24;;;;;;;4.28;1.77;;;;;;;-146.27;79.88;48367.72;5075252;28;20312;-77
2023/03/16 09:16:49;;;;;;;4.07;1.50;;;;;;;-146.27;80.52;48351.78;5101817;28;20104;-76
2023/03/16 09:19:15;;;;;;;5.90;1.98;;;;;;;-146.27;79.61;48375.69;5077515;28;20041;-76
2023/03/16 09:21:41;;;;;;;4.00;2.10;;;;;;;-146.27;77.03;48363.75;5082847;28;20078;-77
2023/03/16 09:24:07;;;;;;;2.58;1.88;;;;;;;-146.27;77.32;48383.66;5082794;28;20036;-78
2023/03/16 09:26:34;;;;;;;4.47;1.75;;;;;;;-146.27;76.59;48413.53;5079486;28;20115;-75
2023/03/16 09:28:59;;;;;;;4.85;1.70;;;;;;;-146.27;74.70;48367.72;5097363;28;20057;-76
2023/03/16 09:31:25;;;;;;;5.20;1.70;;;;;;;-146.27;74.19;48347.81;5095512;28;20024;-76
2023/03/16 09:33:50;;;;;;;4.90;1.70;;;;;;;-146.27;72.35;48367.72;5106060;28;20448;-78
2023/03/16 09:36:16;;;;;;;3.20;1.65;;;;;;;-146.27;68.98;48357.75;5088932;28;20035;-77
2023/03/16 09:38:43;;;;;;;5.70;2.08;;;;;;;-146.27;70.99;48371.69;5091041;28;20036;-76
2023/03/16 09:41:15;;;;;;;6.18;1.75;;;;;;;-146.27;67.92;48359.75;5089401;28;20063;-77
2023/03/16 09:44:13;;;;;;;4.47;2.15;;;;;;;-146.27;67.82;48345.81;5078592;28;20114;-77
2023/03/16 09:46:46;;;;;;;3.70;2.00;;;;;;;-146.27;63.01;48341.81;5087602;28;20036;-78
2023/03/16 09:49:14;;;;;;;;;;;;;;;-146.27;64.23;48333.88;5085112;28;20485;-77
2023/03/16 09:52:05;;;;;;;10.75;2.10;;;;;;;-146.27;64.13;48351.78;5087027;28;19920;-77
2023/03/16 09:54:55;;;;;;;3.20;1.45;;;;;;;-146.27;63.54;48359.75;5092371;28;20112;-78
2023/03/16 09:57:27;;;;;;;7.25;2.00;;;;;;;-146.27;62.75;48347.81;5086726;28;20036;-78
2023/03/16 09:59:54;;;;;;;4.43;1.60;;;;;;;-146.27;61.84;48335.84;5089560;28;20051;-78
2023/03/16 10:02:28;;;;;;;6.65;2.03;;;;;;;-146.27;61.37;48329.88;5091330;28;20035;-78
2023/03/16 10:05:14;;;;;;;8.48;2.10;;;;;;;-146.27;62.67;48315.94;5094599;28;20038;-75
2023/03/16 10:08:06;;;;;;;3.78;1.85;;;;;;;-146.27;61.31;48359.75;5100226;28;20097;-75
2023/03/16 10:10:40;;;;;;;4.97;1.50;;;;;;;-146.27;61.37;48327.88;5091499;28;20491;-75
2023/03/16 10:13:18;;;;;;;11.65;1.70;;;;;;;-146.27;61.54;48363.75;5080989;28;20116;-76
2023/03/16 10:15:45;;;;;;;4.20;1.58;;;;;;;-146.27;63.02;48343.81;5095073;28;20024;-76
2023/03/16 10:18:14;;;;;;;3.30;1.65;;;;;;;-146.27;61.59;48335.84;5083741;28;20035;-76
2023/03/16 10:20:40;;;;;;;6.03;1.60;;;;;;;-146.27;60.41;48363.75;5087765;28;20463;-76
2023/03/16 10:23:34;;;;;;;10.00;1.70;;;;;;;-146.27;59.70;48323.91;5085310;28;20118;-76
2023/03/16 10:26:04;;;;;;;4.67;1.70;;;;;;;-146.27;58.17;48351.78;5075802;28;20071;-74
2023/03/16 10:28:30;;;;;;;6.60;1.90;;;;;;;-146.27;57.74;48331.88;5096177;28;20289;-75
2023/03/16 10:30:58;;;;;;;3.75;1.73;;;;;;;-146.27;56.14;48315.94;5081164;28;20490;-75
2023/03/16 10:33:27;;;;;;;9.65;3.63;;;;;;;-146.27;57.88;48337.84;5090134;28;20034;-76
2023/03/16 10:35:57;;;;;;;7.38;1.63;;;;;;;-146.27;55.52;48347.81;5082338;28;20023;-75
2023/03/16 10:38:41;;;;;;;4.25;1.92;;;;;;;-146.27;54.16;48351.78;5077738;28;20032;-77
2023/03/16 10:41:20;;;;;;;6.72;1.67;;;;;;;-146.27;53.79;48367.72;5082244;28;20024;-77
2023/03/16 10:43:54;;;;;;;6.40;1.45;;;;;;;-146.27;54.55;48294.03;5087168;28;20028;-76
2023/03/16 10:46:19;;;;;;;3.90;1.70;;;;;;;-146.27;53.97;48288.06;5085124;28;20127;-77
2023/03/16 10:48:59;;;;;;;7.95;1.67;;;;;;;-146.27;54.13;48298.00;5092051;28;20106;-77
2023/03/16 10:51:28;;;;;;;3.88;1.42;;;;;;;-146.27;52.97;48303.97;5100316;28;20032;-77
2023/03/16 10:54:00;;;;;;;4.70;2.05;;;;;;;-146.27;52.50;48331.88;5088341;28;20020;-77
2023/03/16 10:56:34;;;;;;;5.18;1.45;;;;;;;-146.27;52.91;48309.97;5086446;28;20025;-74
2023/03/16 10:58:59;;;;;;;6.93;1.58;;;;;;;-146.27;53.09;48323.91;5086976;28;20480;-76
2023/03/16 11:01:27;;;;;;;13.57;1.95;;;;;;;-146.27;52.55;48339.84;5085333;28;20022;-76
2023/03/16 11:03:55;;;;;;;4.82;1.30;;;;;;;-146.27;53.22;48307.97;5089496;28;20456;-74
2023/03/16 11:06:30;;;;;;;2.97;1.30;;;;;;;-146.27;52.78;48337.84;5097539;28;20131;-76
2023/03/16 11:09:21;;;;;;;2.28;1.10;;;;;;;-146.27;53.03;48349.78;5086071;28;20020;-76
2023/03/16 11:11:48;;;;;;;3.50;1.55;;;;;;;-146.27;51.86;48300.00;5084434;28;20081;-75
2023/03/16 11:14:14;;;;;;;8.07;1.73;;;;;;;-146.27;52.05;48339.84;5091192;28;20043;-76